sensor_id;sensor_type;location;lat;lon;timestamp;P1;durP1;ratioP1;P2;durP2;ratioP2
64826;SDS011;51265;53.972;12.286;2023-08-31T00:00:39;3.95;;;2.20;;
64826;SDS011;51265;53.972;12.286;2023-08-31T00:03:06;3.38;;;2.10;;
64826;SDS011;51265;53.972;12.286;2023-08-31T00:05:33;3.42;;;2.45;;
64826;SDS011;51265;53.972;12.286;2023-08-31T00:08:03;4.70;;;2.58;;
64826;SDS011;51265;53.972;12.286;2023-08-31T00:10:29;5.10;;;2.63;;
64826;SDS011;51265;53.972;12.286;2023-08-31T00:13:10;4.07;;;2.40;;
64826;SDS011;51265;53.972;12.286;2023-08-31T00:15:36;2.88;;;2.05;;
64826;SDS011;51265;53.972;12.286;2023-08-31T00:18:02;3.90;;;2.20;;
64826;SDS011;51265;53.972;12.286;2023-08-31T00:20:32;3.22;;;2.30;;
64826;SDS011;51265;53.972;12.286;2023-08-31T00:22:59;4.28;;;2.30;;
64826;SDS011;51265;53.972;12.286;2023-08-31T00:25:26;3.45;;;1.95;;
64826;SDS011;51265;53.972;12.286;2023-08-31T00:27:52;5.53;;;2.30;;
64826;SDS011;51265;53.972;12.286;2023-08-31T00:30:19;2.85;;;2.33;;
64826;SDS011;51265;53.972;12.286;2023-08-31T00:32:46;4.72;;;2.67;;
64826;SDS011;51265;53.972;12.286;2023-08-31T00:35:15;5.57;;;2.72;;
64826;SDS011;51265;53.972;12.286;2023-08-31T00:37:42;2.88;;;2.50;;
64826;SDS011;51265;53.972;12.286;2023-08-31T00:40:08;3.42;;;2.70;;
64826;SDS011;51265;53.972;12.286;2023-08-31T00:42:37;3.63;;;2.70;;
64826;SDS011;51265;53.972;12.286;2023-08-31T00:45:03;4.22;;;2.83;;
64826;SDS011;51265;53.972;12.286;2023-08-31T00:47:30;5.10;;;3.08;;
64826;SDS011;51265;53.972;12.286;2023-08-31T00:49:56;3.17;;;2.85;;
64826;SDS011;51265;53.972;12.286;2023-08-31T00:52:22;3.42;;;3.13;;
64826;SDS011;51265;53.972;12.286;2023-08-31T00:54:49;4.05;;;2.90;;
64826;SDS011;51265;53.972;12.286;2023-08-31T00:57:17;5.03;;;3.03;;
64826;SDS011;51265;53.972;12.286;2023-08-31T00:59:44;4.57;;;3.15;;
64826;SDS011;51265;53.972;12.286;2023-08-31T01:02:19;3.28;;;2.67;;
64826;SDS011;51265;53.972;12.286;2023-08-31T01:10:20;3.30;;;3.00;;
64826;SDS011;51265;53.972;12.286;2023-08-31T01:12:59;3.63;;;2.75;;
64826;SDS011;51265;53.972;12.286;2023-08-31T01:15:30;4.95;;;3.60;;
64826;SDS011;51265;53.972;12.286;2023-08-31T01:17:58;6.22;;;3.45;;
64826;SDS011;51265;53.972;12.286;2023-08-31T01:21:17;3.45;;;2.88;;
64826;SDS011;51265;53.972;12.286;2023-08-31T01:23:25;4.07;;;3.22;;
64826;SDS011;51265;53.972;12.286;2023-08-31T01:25:58;4.95;;;3.75;;
64826;SDS011;51265;53.972;12.286;2023-08-31T01:28:24;5.78;;;3.78;;
64826;SDS011;51265;53.972;12.286;2023-08-31T01:30:50;4.57;;;3.55;;
64826;SDS011;51265;53.972;12.286;2023-08-31T01:33:18;4.57;;;3.75;;
64826;SDS011;51265;53.972;12.286;2023-08-31T01:35:45;4.90;;;3.78;;
64826;SDS011;51265;53.972;12.286;2023-08-31T01:38:18;5.22;;;3.90;;
64826;SDS011;51265;53.972;12.286;2023-08-31T01:40:54;7.78;;;4.22;;
64826;SDS011;51265;53.972;12.286;2023-08-31T01:43:26;4.82;;;3.63;;
64826;SDS011;51265;53.972;12.286;2023-08-31T01:45:54;5.22;;;4.05;;
64826;SDS011;51265;53.972;12.286;2023-08-31T01:48:20;4.60;;;3.67;;
64826;SDS011;51265;53.972;12.286;2023-08-31T01:50:47;4.03;;;3.13;;
64826;SDS011;51265;53.972;12.286;2023-08-31T01:53:13;3.85;;;2.88;;
64826;SDS011;51265;53.972;12.286;2023-08-31T01:55:43;3.25;;;2.83;;
64826;SDS011;51265;53.972;12.286;2023-08-31T01:58:09;3.80;;;2.90;;
64826;SDS011;51265;53.972;12.286;2023-08-31T02:00:36;4.03;;;2.67;;
64826;SDS011;51265;53.972;12.286;2023-08-31T02:03:04;2.95;;;2.45;;
64826;SDS011;51265;53.972;12.286;2023-08-31T02:05:30;5.25;;;2.40;;
64826;SDS011;51265;53.972;12.286;2023-08-31T02:07:56;5.88;;;2.53;;
64826;SDS011;51265;53.972;12.286;2023-08-31T02:10:22;5.05;;;2.72;;
64826;SDS011;51265;53.972;12.286;2023-08-31T02:12:49;3.72;;;2.70;;
64826;SDS011;51265;53.972;12.286;2023-08-31T02:15:15;3.40;;;2.78;;
64826;SDS011;51265;53.972;12.286;2023-08-31T02:17:41;4.18;;;3.05;;
64826;SDS011;51265;53.972;12.286;2023-08-31T02:20:09;6.32;;;3.60;;
64826;SDS011;51265;53.972;12.286;2023-08-31T02:22:35;6.80;;;4.15;;
64826;SDS011;51265;53.972;12.286;2023-08-31T02:25:02;6.93;;;4.15;;
64826;SDS011;51265;53.972;12.286;2023-08-31T02:27:28;4.90;;;4.03;;
64826;SDS011;51265;53.972;12.286;2023-08-31T02:29:55;4.85;;;3.72;;
64826;SDS011;51265;53.972;12.286;2023-08-31T02:32:21;5.78;;;4.20;;
64826;SDS011;51265;53.972;12.286;2023-08-31T02:34:47;5.20;;;4.15;;
64826;SDS011;51265;53.972;12.286;2023-08-31T02:37:13;10.13;;;4.30;;
64826;SDS011;51265;53.972;12.286;2023-08-31T02:39:40;6.03;;;3.67;;
64826;SDS011;51265;53.972;12.286;2023-08-31T02:42:06;6.47;;;4.40;;
64826;SDS011;51265;53.972;12.286;2023-08-31T02:44:33;4.97;;;3.78;;
64826;SDS011;51265;53.972;12.286;2023-08-31T02:47:00;5.47;;;4.38;;
64826;SDS011;51265;53.972;12.286;2023-08-31T02:49:26;8.50;;;5.47;;
64826;SDS011;51265;53.972;12.286;2023-08-31T02:51:52;12.32;;;5.95;;
64826;SDS011;51265;53.972;12.286;2023-08-31T02:54:18;9.88;;;6.30;;
64826;SDS011;51265;53.972;12.286;2023-08-31T02:56:45;9.65;;;7.70;;
64826;SDS011;51265;53.972;12.286;2023-08-31T02:59:11;9.80;;;7.50;;
64826;SDS011;51265;53.972;12.286;2023-08-31T03:01:39;14.40;;;9.70;;
64826;SDS011;51265;53.972;12.286;2023-08-31T03:04:05;12.98;;;9.88;;
64826;SDS011;51265;53.972;12.286;2023-08-31T03:06:32;16.35;;;10.70;;
64826;SDS011;51265;53.972;12.286;2023-08-31T03:08:58;15.23;;;11.07;;
64826;SDS011;51265;53.972;12.286;2023-08-31T03:11:24;15.60;;;10.65;;
64826;SDS011;51265;53.972;12.286;2023-08-31T03:13:51;20.83;;;12.05;;
64826;SDS011;51265;53.972;12.286;2023-08-31T03:16:17;14.35;;;11.18;;
64826;SDS011;51265;53.972;12.286;2023-08-31T03:18:43;23.00;;;12.60;;
64826;SDS011;51265;53.972;12.286;2023-08-31T03:21:09;17.00;;;12.07;;
64826;SDS011;51265;53.972;12.286;2023-08-31T03:23:35;18.63;;;12.38;;
64826;SDS011;51265;53.972;12.286;2023-08-31T03:26:08;24.17;;;13.35;;
64826;SDS011;51265;53.972;12.286;2023-08-31T03:28:35;16.25;;;12.10;;
64826;SDS011;51265;53.972;12.286;2023-08-31T03:31:01;19.55;;;12.63;;
64826;SDS011;51265;53.972;12.286;2023-08-31T03:33:28;22.05;;;12.77;;
64826;SDS011;51265;53.972;12.286;2023-08-31T03:36:04;18.15;;;13.15;;
64826;SDS011;51265;53.972;12.286;2023-08-31T03:38:32;29.00;;;15.85;;
64826;SDS011;51265;53.972;12.286;2023-08-31T03:41:00;25.88;;;15.52;;
64826;SDS011;51265;53.972;12.286;2023-08-31T03:43:26;22.75;;;14.45;;
64826;SDS011;51265;53.972;12.286;2023-08-31T03:45:56;29.73;;;15.43;;
64826;SDS011;51265;53.972;12.286;2023-08-31T03:48:23;23.13;;;15.13;;
64826;SDS011;51265;53.972;12.286;2023-08-31T03:50:54;25.85;;;15.98;;
64826;SDS011;51265;53.972;12.286;2023-08-31T03:53:22;26.60;;;16.38;;
64826;SDS011;51265;53.972;12.286;2023-08-31T03:55:49;29.58;;;17.58;;
64826;SDS011;51265;53.972;12.286;2023-08-31T03:58:15;37.10;;;18.50;;
64826;SDS011;51265;53.972;12.286;2023-08-31T04:00:44;30.20;;;17.90;;
64826;SDS011;51265;53.972;12.286;2023-08-31T04:03:11;21.40;;;15.48;;
64826;SDS011;51265;53.972;12.286;2023-08-31T04:05:37;34.80;;;17.27;;
64826;SDS011;51265;53.972;12.286;2023-08-31T04:08:04;28.45;;;17.60;;
64826;SDS011;51265;53.972;12.286;2023-08-31T04:10:33;26.77;;;16.58;;
64826;SDS011;51265;53.972;12.286;2023-08-31T04:12:59;21.63;;;16.08;;
64826;SDS011;51265;53.972;12.286;2023-08-31T04:15:28;31.88;;;18.20;;
64826;SDS011;51265;53.972;12.286;2023-08-31T04:17:54;33.67;;;19.58;;
64826;SDS011;51265;53.972;12.286;2023-08-31T04:20:20;26.60;;;17.95;;
64826;SDS011;51265;53.972;12.286;2023-08-31T04:22:46;43.42;;;21.48;;
64826;SDS011;51265;53.972;12.286;2023-08-31T04:25:12;28.90;;;18.83;;
64826;SDS011;51265;53.972;12.286;2023-08-31T04:27:39;39.70;;;20.15;;
64826;SDS011;51265;53.972;12.286;2023-08-31T04:30:06;27.77;;;18.42;;
64826;SDS011;51265;53.972;12.286;2023-08-31T04:32:33;29.73;;;18.00;;
64826;SDS011;51265;53.972;12.286;2023-08-31T04:34:59;30.42;;;19.23;;
64826;SDS011;51265;53.972;12.286;2023-08-31T04:37:25;29.73;;;19.60;;
64826;SDS011;51265;53.972;12.286;2023-08-31T04:39:51;33.28;;;21.38;;
64826;SDS011;51265;53.972;12.286;2023-08-31T04:42:18;43.53;;;21.83;;
64826;SDS011;51265;53.972;12.286;2023-08-31T04:44:44;39.22;;;22.88;;
64826;SDS011;51265;53.972;12.286;2023-08-31T04:47:10;42.70;;;22.63;;
64826;SDS011;51265;53.972;12.286;2023-08-31T04:49:37;41.83;;;22.40;;
64826;SDS011;51265;53.972;12.286;2023-08-31T04:52:03;44.75;;;23.00;;
64826;SDS011;51265;53.972;12.286;2023-08-31T04:54:31;37.55;;;21.52;;
64826;SDS011;51265;53.972;12.286;2023-08-31T04:56:57;31.70;;;20.42;;
64826;SDS011;51265;53.972;12.286;2023-08-31T04:59:23;44.50;;;24.55;;
64826;SDS011;51265;53.972;12.286;2023-08-31T05:01:49;41.10;;;23.33;;
64826;SDS011;51265;53.972;12.286;2023-08-31T05:04:15;47.20;;;23.52;;
64826;SDS011;51265;53.972;12.286;2023-08-31T05:06:42;39.70;;;23.30;;
64826;SDS011;51265;53.972;12.286;2023-08-31T05:09:08;43.92;;;24.05;;
64826;SDS011;51265;53.972;12.286;2023-08-31T05:11:35;40.83;;;22.88;;
64826;SDS011;51265;53.972;12.286;2023-08-31T05:14:01;42.55;;;23.70;;
64826;SDS011;51265;53.972;12.286;2023-08-31T05:16:28;41.97;;;24.75;;
64826;SDS011;51265;53.972;12.286;2023-08-31T05:18:54;51.15;;;25.42;;
64826;SDS011;51265;53.972;12.286;2023-08-31T05:21:20;45.67;;;25.15;;
64826;SDS011;51265;53.972;12.286;2023-08-31T05:23:46;46.20;;;24.63;;
64826;SDS011;51265;53.972;12.286;2023-08-31T05:26:12;39.70;;;23.85;;
64826;SDS011;51265;53.972;12.286;2023-08-31T05:28:39;39.03;;;23.48;;
64826;SDS011;51265;53.972;12.286;2023-08-31T05:31:06;44.35;;;24.17;;
64826;SDS011;51265;53.972;12.286;2023-08-31T05:33:32;40.95;;;23.90;;
64826;SDS011;51265;53.972;12.286;2023-08-31T05:36:00;49.33;;;25.70;;
64826;SDS011;51265;53.972;12.286;2023-08-31T05:38:28;40.28;;;23.63;;
64826;SDS011;51265;53.972;12.286;2023-08-31T05:40:54;38.03;;;23.50;;
64826;SDS011;51265;53.972;12.286;2023-08-31T05:43:20;43.33;;;24.35;;
64826;SDS011;51265;53.972;12.286;2023-08-31T05:45:46;39.25;;;24.42;;
64826;SDS011;51265;53.972;12.286;2023-08-31T05:48:12;51.67;;;26.45;;
64826;SDS011;51265;53.972;12.286;2023-08-31T05:50:40;40.60;;;24.75;;
64826;SDS011;51265;53.972;12.286;2023-08-31T05:53:09;43.22;;;24.85;;
64826;SDS011;51265;53.972;12.286;2023-08-31T05:55:36;50.78;;;25.35;;
64826;SDS011;51265;53.972;12.286;2023-08-31T05:58:02;42.13;;;23.42;;
64826;SDS011;51265;53.972;12.286;2023-08-31T06:00:28;43.53;;;25.02;;
64826;SDS011;51265;53.972;12.286;2023-08-31T06:02:54;41.08;;;23.70;;
64826;SDS011;51265;53.972;12.286;2023-08-31T06:05:21;40.63;;;24.85;;
64826;SDS011;51265;53.972;12.286;2023-08-31T06:07:47;39.22;;;24.05;;
64826;SDS011;51265;53.972;12.286;2023-08-31T06:10:13;39.67;;;23.42;;
64826;SDS011;51265;53.972;12.286;2023-08-31T06:12:40;41.35;;;22.67;;
64826;SDS011;51265;53.972;12.286;2023-08-31T06:15:07;35.20;;;21.75;;
64826;SDS011;51265;53.972;12.286;2023-08-31T06:17:33;41.30;;;23.73;;
64826;SDS011;51265;53.972;12.286;2023-08-31T06:20:01;35.70;;;21.48;;
64826;SDS011;51265;53.972;12.286;2023-08-31T06:22:27;33.30;;;21.77;;
64826;SDS011;51265;53.972;12.286;2023-08-31T06:24:54;35.85;;;21.45;;
64826;SDS011;51265;53.972;12.286;2023-08-31T06:27:20;26.65;;;19.50;;
64826;SDS011;51265;53.972;12.286;2023-08-31T06:29:47;32.13;;;21.15;;
64826;SDS011;51265;53.972;12.286;2023-08-31T06:32:13;30.13;;;20.02;;
64826;SDS011;51265;53.972;12.286;2023-08-31T06:34:39;28.77;;;19.58;;
64826;SDS011;51265;53.972;12.286;2023-08-31T06:37:05;26.15;;;18.48;;
64826;SDS011;51265;53.972;12.286;2023-08-31T06:39:31;22.92;;;18.00;;
64826;SDS011;51265;53.972;12.286;2023-08-31T06:41:59;23.83;;;16.75;;
64826;SDS011;51265;53.972;12.286;2023-08-31T06:44:30;23.67;;;17.75;;
64826;SDS011;51265;53.972;12.286;2023-08-31T06:46:56;23.95;;;16.80;;
64826;SDS011;51265;53.972;12.286;2023-08-31T06:49:22;22.38;;;16.92;;
64826;SDS011;51265;53.972;12.286;2023-08-31T06:51:49;20.17;;;14.75;;
64826;SDS011;51265;53.972;12.286;2023-08-31T06:54:16;20.92;;;15.50;;
64826;SDS011;51265;53.972;12.286;2023-08-31T06:56:42;17.77;;;14.82;;
64826;SDS011;51265;53.972;12.286;2023-08-31T06:59:08;19.13;;;14.10;;
64826;SDS011;51265;53.972;12.286;2023-08-31T07:01:34;16.23;;;12.75;;
64826;SDS011;51265;53.972;12.286;2023-08-31T07:04:08;18.65;;;13.25;;
64826;SDS011;51265;53.972;12.286;2023-08-31T07:06:35;17.15;;;11.85;;
64826;SDS011;51265;53.972;12.286;2023-08-31T07:09:02;15.90;;;12.27;;
64826;SDS011;51265;53.972;12.286;2023-08-31T07:11:31;15.93;;;11.82;;
64826;SDS011;51265;53.972;12.286;2023-08-31T07:13:57;13.52;;;10.85;;
64826;SDS011;51265;53.972;12.286;2023-08-31T07:16:23;13.93;;;12.43;;
64826;SDS011;51265;53.972;12.286;2023-08-31T07:18:49;15.80;;;12.20;;
64826;SDS011;51265;53.972;12.286;2023-08-31T07:21:15;14.35;;;12.57;;
64826;SDS011;51265;53.972;12.286;2023-08-31T07:23:42;15.07;;;11.95;;
64826;SDS011;51265;53.972;12.286;2023-08-31T07:26:08;13.55;;;11.48;;
64826;SDS011;51265;53.972;12.286;2023-08-31T07:28:34;13.32;;;10.55;;
64826;SDS011;51265;53.972;12.286;2023-08-31T07:31:04;11.73;;;9.98;;
64826;SDS011;51265;53.972;12.286;2023-08-31T07:33:32;12.32;;;10.20;;
64826;SDS011;51265;53.972;12.286;2023-08-31T07:36:01;13.75;;;9.85;;
64826;SDS011;51265;53.972;12.286;2023-08-31T07:38:30;15.13;;;9.95;;
64826;SDS011;51265;53.972;12.286;2023-08-31T07:40:57;12.40;;;9.80;;
64826;SDS011;51265;53.972;12.286;2023-08-31T07:43:23;11.73;;;9.27;;
64826;SDS011;51265;53.972;12.286;2023-08-31T07:45:49;12.88;;;9.07;;
64826;SDS011;51265;53.972;12.286;2023-08-31T07:48:15;10.73;;;8.07;;
64826;SDS011;51265;53.972;12.286;2023-08-31T07:50:41;11.45;;;8.68;;
64826;SDS011;51265;53.972;12.286;2023-08-31T07:53:08;16.95;;;8.32;;
64826;SDS011;51265;53.972;12.286;2023-08-31T07:55:34;9.85;;;8.02;;
64826;SDS011;51265;53.972;12.286;2023-08-31T07:58:01;9.50;;;7.70;;
64826;SDS011;51265;53.972;12.286;2023-08-31T08:00:27;10.63;;;7.03;;
64826;SDS011;51265;53.972;12.286;2023-08-31T08:02:53;9.38;;;5.88;;
64826;SDS011;51265;53.972;12.286;2023-08-31T08:05:19;6.85;;;5.63;;
64826;SDS011;51265;53.972;12.286;2023-08-31T08:07:46;7.47;;;5.70;;
64826;SDS011;51265;53.972;12.286;2023-08-31T08:10:12;6.50;;;5.50;;
64826;SDS011;51265;53.972;12.286;2023-08-31T08:12:43;8.43;;;5.32;;
64826;SDS011;51265;53.972;12.286;2023-08-31T08:15:11;6.95;;;5.82;;
64826;SDS011;51265;53.972;12.286;2023-08-31T08:17:37;7.50;;;4.90;;
64826;SDS011;51265;53.972;12.286;2023-08-31T08:20:05;7.85;;;5.13;;
64826;SDS011;51265;53.972;12.286;2023-08-31T08:22:33;6.70;;;5.10;;
64826;SDS011;51265;53.972;12.286;2023-08-31T08:24:59;6.53;;;4.32;;
64826;SDS011;51265;53.972;12.286;2023-08-31T08:27:26;6.80;;;4.55;;
64826;SDS011;51265;53.972;12.286;2023-08-31T08:29:52;9.75;;;4.35;;
64826;SDS011;51265;53.972;12.286;2023-08-31T08:32:18;5.10;;;3.95;;
64826;SDS011;51265;53.972;12.286;2023-08-31T08:34:44;6.63;;;4.05;;
64826;SDS011;51265;53.972;12.286;2023-08-31T08:37:11;7.10;;;3.50;;
64826;SDS011;51265;53.972;12.286;2023-08-31T08:39:37;8.57;;;3.55;;
64826;SDS011;51265;53.972;12.286;2023-08-31T08:42:03;5.70;;;3.60;;
64826;SDS011;51265;53.972;12.286;2023-08-31T08:44:31;6.45;;;3.10;;
64826;SDS011;51265;53.972;12.286;2023-08-31T08:46:59;6.38;;;3.40;;
64826;SDS011;51265;53.972;12.286;2023-08-31T08:49:26;4.47;;;2.70;;
64826;SDS011;51265;53.972;12.286;2023-08-31T08:51:54;5.97;;;3.00;;
64826;SDS011;51265;53.972;12.286;2023-08-31T08:54:21;6.10;;;3.55;;
64826;SDS011;51265;53.972;12.286;2023-08-31T08:56:48;5.80;;;2.67;;
64826;SDS011;51265;53.972;12.286;2023-08-31T08:59:14;4.10;;;2.40;;
64826;SDS011;51265;53.972;12.286;2023-08-31T09:01:40;5.40;;;2.50;;
64826;SDS011;51265;53.972;12.286;2023-08-31T09:04:08;4.22;;;2.90;;
64826;SDS011;51265;53.972;12.286;2023-08-31T09:06:35;4.47;;;2.40;;
64826;SDS011;51265;53.972;12.286;2023-08-31T09:09:01;3.85;;;2.00;;
64826;SDS011;51265;53.972;12.286;2023-08-31T09:11:27;4.75;;;2.15;;
64826;SDS011;51265;53.972;12.286;2023-08-31T09:13:54;5.28;;;1.75;;
64826;SDS011;51265;53.972;12.286;2023-08-31T09:16:26;4.30;;;1.80;;
64826;SDS011;51265;53.972;12.286;2023-08-31T09:18:54;7.15;;;2.25;;
64826;SDS011;51265;53.972;12.286;2023-08-31T09:21:21;4.45;;;1.85;;
64826;SDS011;51265;53.972;12.286;2023-08-31T09:23:56;2.97;;;1.73;;
64826;SDS011;51265;53.972;12.286;2023-08-31T09:26:23;4.22;;;1.63;;
64826;SDS011;51265;53.972;12.286;2023-08-31T09:28:50;2.42;;;1.58;;
64826;SDS011;51265;53.972;12.286;2023-08-31T09:31:17;5.60;;;1.10;;
64826;SDS011;51265;53.972;12.286;2023-08-31T09:33:51;2.40;;;0.88;;
64826;SDS011;51265;53.972;12.286;2023-08-31T09:36:19;7.65;;;1.65;;
64826;SDS011;51265;53.972;12.286;2023-08-31T09:38:46;2.60;;;1.20;;
64826;SDS011;51265;53.972;12.286;2023-08-31T09:41:12;5.57;;;1.30;;
64826;SDS011;51265;53.972;12.286;2023-08-31T09:43:39;3.05;;;1.02;;
64826;SDS011;51265;53.972;12.286;2023-08-31T09:46:05;2.75;;;0.93;;
64826;SDS011;51265;53.972;12.286;2023-08-31T09:48:32;3.97;;;1.00;;
64826;SDS011;51265;53.972;12.286;2023-08-31T09:50:58;2.92;;;0.90;;
64826;SDS011;51265;53.972;12.286;2023-08-31T09:53:29;2.13;;;1.02;;
64826;SDS011;51265;53.972;12.286;2023-08-31T09:55:57;3.28;;;0.93;;
64826;SDS011;51265;53.972;12.286;2023-08-31T09:58:23;1.35;;;0.80;;
64826;SDS011;51265;53.972;12.286;2023-08-31T10:00:51;3.10;;;0.80;;
64826;SDS011;51265;53.972;12.286;2023-08-31T10:03:19;3.10;;;0.80;;
64826;SDS011;51265;53.972;12.286;2023-08-31T10:05:47;5.20;;;1.10;;
64826;SDS011;51265;53.972;12.286;2023-08-31T10:08:15;5.05;;;1.20;;
64826;SDS011;51265;53.972;12.286;2023-08-31T10:10:42;1.98;;;0.73;;
64826;SDS011;51265;53.972;12.286;2023-08-31T10:13:08;1.48;;;0.63;;
64826;SDS011;51265;53.972;12.286;2023-08-31T10:15:34;4.05;;;0.65;;
64826;SDS011;51265;53.972;12.286;2023-08-31T10:18:05;5.47;;;0.98;;
64826;SDS011;51265;53.972;12.286;2023-08-31T10:20:32;2.70;;;0.63;;
64826;SDS011;51265;53.972;12.286;2023-08-31T10:23:02;1.00;;;0.60;;
64826;SDS011;51265;53.972;12.286;2023-08-31T10:28:21;4.05;;;0.70;;
64826;SDS011;51265;53.972;12.286;2023-08-31T10:31:01;3.28;;;0.80;;
64826;SDS011;51265;53.972;12.286;2023-08-31T10:33:37;2.45;;;1.00;;
64826;SDS011;51265;53.972;12.286;2023-08-31T10:36:09;2.92;;;0.70;;
64826;SDS011;51265;53.972;12.286;2023-08-31T10:38:45;1.42;;;0.40;;
64826;SDS011;51265;53.972;12.286;2023-08-31T10:43:57;1.95;;;0.70;;
64826;SDS011;51265;53.972;12.286;2023-08-31T10:46:25;3.22;;;0.60;;
64826;SDS011;51265;53.972;12.286;2023-08-31T10:48:59;9.35;;;1.00;;
64826;SDS011;51265;53.972;12.286;2023-08-31T10:51:32;2.50;;;0.60;;
64826;SDS011;51265;53.972;12.286;2023-08-31T10:56:40;5.50;;;0.88;;
64826;SDS011;51265;53.972;12.286;2023-08-31T10:59:19;1.75;;;0.50;;
64826;SDS011;51265;53.972;12.286;2023-08-31T11:01:56;3.58;;;0.70;;
64826;SDS011;51265;53.972;12.286;2023-08-31T11:04:25;1.55;;;0.50;;
64826;SDS011;51265;53.972;12.286;2023-08-31T11:07:11;5.47;;;0.90;;
64826;SDS011;51265;53.972;12.286;2023-08-31T11:09:45;3.05;;;0.57;;
64826;SDS011;51265;53.972;12.286;2023-08-31T11:12:12;5.68;;;0.63;;
64826;SDS011;51265;53.972;12.286;2023-08-31T11:14:39;3.20;;;0.60;;
64826;SDS011;51265;53.972;12.286;2023-08-31T11:17:05;4.32;;;0.60;;
64826;SDS011;51265;53.972;12.286;2023-08-31T11:19:32;3.13;;;0.73;;
64826;SDS011;51265;53.972;12.286;2023-08-31T11:22:02;3.65;;;0.60;;
64826;SDS011;51265;53.972;12.286;2023-08-31T11:24:30;1.98;;;0.60;;
64826;SDS011;51265;53.972;12.286;2023-08-31T11:26:57;10.95;;;1.02;;
64826;SDS011;51265;53.972;12.286;2023-08-31T11:29:23;4.97;;;0.77;;
64826;SDS011;51265;53.972;12.286;2023-08-31T11:31:49;4.13;;;0.70;;
64826;SDS011;51265;53.972;12.286;2023-08-31T11:34:16;2.55;;;0.60;;
64826;SDS011;51265;53.972;12.286;2023-08-31T11:36:44;2.35;;;0.52;;
64826;SDS011;51265;53.972;12.286;2023-08-31T11:39:12;3.28;;;0.70;;
64826;SDS011;51265;53.972;12.286;2023-08-31T11:41:38;4.05;;;0.90;;
64826;SDS011;51265;53.972;12.286;2023-08-31T11:44:09;2.38;;;0.47;;
64826;SDS011;51265;53.972;12.286;2023-08-31T11:46:37;3.25;;;0.70;;
64826;SDS011;51265;53.972;12.286;2023-08-31T11:49:06;3.88;;;0.50;;
64826;SDS011;51265;53.972;12.286;2023-08-31T11:51:33;1.95;;;0.52;;
64826;SDS011;51265;53.972;12.286;2023-08-31T11:54:03;4.60;;;0.60;;
64826;SDS011;51265;53.972;12.286;2023-08-31T11:59:12;3.60;;;0.60;;
64826;SDS011;51265;53.972;12.286;2023-08-31T12:01:42;1.65;;;0.40;;
64826;SDS011;51265;53.972;12.286;2023-08-31T12:04:12;2.67;;;0.57;;
64826;SDS011;51265;53.972;12.286;2023-08-31T12:06:39;3.47;;;0.50;;
64826;SDS011;51265;53.972;12.286;2023-08-31T12:09:06;5.07;;;0.80;;
64826;SDS011;51265;53.972;12.286;2023-08-31T12:11:33;2.63;;;0.60;;
64826;SDS011;51265;53.972;12.286;2023-08-31T12:14:03;2.28;;;0.63;;
64826;SDS011;51265;53.972;12.286;2023-08-31T12:16:33;3.03;;;0.50;;
64826;SDS011;51265;53.972;12.286;2023-08-31T12:19:04;2.97;;;0.50;;
64826;SDS011;51265;53.972;12.286;2023-08-31T12:21:30;2.38;;;0.50;;
64826;SDS011;51265;53.972;12.286;2023-08-31T12:23:58;1.63;;;0.60;;
64826;SDS011;51265;53.972;12.286;2023-08-31T12:26:25;1.95;;;0.40;;
64826;SDS011;51265;53.972;12.286;2023-08-31T12:28:52;1.85;;;0.63;;
64826;SDS011;51265;53.972;12.286;2023-08-31T12:31:18;4.20;;;0.43;;
64826;SDS011;51265;53.972;12.286;2023-08-31T12:33:44;4.40;;;0.70;;
64826;SDS011;51265;53.972;12.286;2023-08-31T12:36:10;1.10;;;0.50;;
64826;SDS011;51265;53.972;12.286;2023-08-31T12:38:37;1.95;;;0.60;;
64826;SDS011;51265;53.972;12.286;2023-08-31T12:41:03;1.30;;;0.40;;
64826;SDS011;51265;53.972;12.286;2023-08-31T12:43:29;1.67;;;0.40;;
64826;SDS011;51265;53.972;12.286;2023-08-31T12:45:55;1.20;;;0.50;;
64826;SDS011;51265;53.972;12.286;2023-08-31T12:48:22;1.02;;;0.40;;
64826;SDS011;51265;53.972;12.286;2023-08-31T12:50:48;1.02;;;0.38;;
64826;SDS011;51265;53.972;12.286;2023-08-31T12:53:14;2.45;;;0.68;;
64826;SDS011;51265;53.972;12.286;2023-08-31T12:55:41;1.65;;;0.45;;
64826;SDS011;51265;53.972;12.286;2023-08-31T12:58:07;2.00;;;0.30;;
64826;SDS011;51265;53.972;12.286;2023-08-31T13:00:33;0.77;;;0.30;;
64826;SDS011;51265;53.972;12.286;2023-08-31T13:03:00;2.28;;;1.20;;
64826;SDS011;51265;53.972;12.286;2023-08-31T13:05:27;3.72;;;0.40;;
64826;SDS011;51265;53.972;12.286;2023-08-31T13:07:54;1.33;;;0.40;;
64826;SDS011;51265;53.972;12.286;2023-08-31T13:10:21;2.38;;;0.60;;
64826;SDS011;51265;53.972;12.286;2023-08-31T13:12:47;2.35;;;0.30;;
64826;SDS011;51265;53.972;12.286;2023-08-31T13:15:13;1.73;;;0.32;;
64826;SDS011;51265;53.972;12.286;2023-08-31T13:17:40;5.60;;;0.40;;
64826;SDS011;51265;53.972;12.286;2023-08-31T13:20:06;3.55;;;0.43;;
64826;SDS011;51265;53.972;12.286;2023-08-31T13:22:34;1.67;;;0.50;;
64826;SDS011;51265;53.972;12.286;2023-08-31T13:25:00;1.55;;;0.50;;
64826;SDS011;51265;53.972;12.286;2023-08-31T13:27:26;2.72;;;0.60;;
64826;SDS011;51265;53.972;12.286;2023-08-31T13:29:52;2.80;;;0.57;;
64826;SDS011;51265;53.972;12.286;2023-08-31T13:32:19;1.83;;;0.40;;
64826;SDS011;51265;53.972;12.286;2023-08-31T13:34:45;1.60;;;0.50;;
64826;SDS011;51265;53.972;12.286;2023-08-31T13:37:11;3.17;;;0.50;;
64826;SDS011;51265;53.972;12.286;2023-08-31T13:39:37;2.97;;;0.60;;
64826;SDS011;51265;53.972;12.286;2023-08-31T13:42:03;1.88;;;0.55;;
64826;SDS011;51265;53.972;12.286;2023-08-31T13:44:30;2.05;;;0.80;;
64826;SDS011;51265;53.972;12.286;2023-08-31T13:46:59;1.90;;;0.70;;
64826;SDS011;51265;53.972;12.286;2023-08-31T13:49:25;3.78;;;0.47;;
64826;SDS011;51265;53.972;12.286;2023-08-31T13:51:52;2.10;;;0.45;;
64826;SDS011;51265;53.972;12.286;2023-08-31T13:54:18;1.20;;;0.57;;
64826;SDS011;51265;53.972;12.286;2023-08-31T13:56:45;5.68;;;0.60;;
64826;SDS011;51265;53.972;12.286;2023-08-31T13:59:11;3.58;;;0.60;;
64826;SDS011;51265;53.972;12.286;2023-08-31T14:01:37;3.75;;;0.68;;
64826;SDS011;51265;53.972;12.286;2023-08-31T14:04:04;3.13;;;0.50;;
64826;SDS011;51265;53.972;12.286;2023-08-31T14:06:30;2.92;;;0.50;;
64826;SDS011;51265;53.972;12.286;2023-08-31T14:08:56;2.78;;;0.52;;
64826;SDS011;51265;53.972;12.286;2023-08-31T14:11:23;1.45;;;0.32;;
64826;SDS011;51265;53.972;12.286;2023-08-31T14:13:49;1.48;;;0.40;;
64826;SDS011;51265;53.972;12.286;2023-08-31T14:16:15;2.25;;;0.93;;
64826;SDS011;51265;53.972;12.286;2023-08-31T14:18:41;3.40;;;0.40;;
64826;SDS011;51265;53.972;12.286;2023-08-31T14:21:09;2.97;;;0.43;;
64826;SDS011;51265;53.972;12.286;2023-08-31T14:23:40;2.35;;;0.30;;
64826;SDS011;51265;53.972;12.286;2023-08-31T14:26:06;1.65;;;0.30;;
64826;SDS011;51265;53.972;12.286;2023-08-31T14:28:35;1.02;;;0.20;;
64826;SDS011;51265;53.972;12.286;2023-08-31T14:31:05;1.35;;;0.30;;
64826;SDS011;51265;53.972;12.286;2023-08-31T14:33:31;1.20;;;0.30;;
64826;SDS011;51265;53.972;12.286;2023-08-31T14:35:57;1.00;;;0.30;;
64826;SDS011;51265;53.972;12.286;2023-08-31T14:38:24;0.75;;;0.30;;
64826;SDS011;51265;53.972;12.286;2023-08-31T14:40:53;1.23;;;0.30;;
64826;SDS011;51265;53.972;12.286;2023-08-31T14:43:20;1.38;;;0.40;;